sensor_id;sensor_type;location;lat;lon;timestamp;P1;durP1;ratioP1;P2;durP2;ratioP2
77214;SDS011;66210;53.282;9.864;2023-04-03T00:00:04;4.82;;;1.80;;
77214;SDS011;66210;53.282;9.864;2023-04-03T00:02:31;4.90;;;1.80;;
77214;SDS011;66210;53.282;9.864;2023-04-03T00:04:58;4.25;;;1.80;;
77214;SDS011;66210;53.282;9.864;2023-04-03T00:07:25;6.72;;;1.55;;
77214;SDS011;66210;53.282;9.864;2023-04-03T00:09:51;5.88;;;1.67;;
77214;SDS011;66210;53.282;9.864;2023-04-03T00:12:18;7.13;;;1.70;;
77214;SDS011;66210;53.282;9.864;2023-04-03T00:14:45;4.00;;;1.58;;
77214;SDS011;66210;53.282;9.864;2023-04-03T00:17:11;2.97;;;1.50;;
77214;SDS011;66210;53.282;9.864;2023-04-03T00:19:38;2.72;;;1.50;;
77214;SDS011;66210;53.282;9.864;2023-04-03T00:22:05;3.22;;;1.48;;
77214;SDS011;66210;53.282;9.864;2023-04-03T00:24:31;4.70;;;1.35;;
77214;SDS011;66210;53.282;9.864;2023-04-03T00:26:58;5.03;;;1.35;;
77214;SDS011;66210;53.282;9.864;2023-04-03T00:29:25;7.20;;;2.22;;
77214;SDS011;66210;53.282;9.864;2023-04-03T00:31:51;3.88;;;1.70;;
77214;SDS011;66210;53.282;9.864;2023-04-03T00:34:18;5.95;;;1.65;;
77214;SDS011;66210;53.282;9.864;2023-04-03T00:36:46;7.60;;;1.80;;
77214;SDS011;66210;53.282;9.864;2023-04-03T00:39:12;3.65;;;1.60;;
77214;SDS011;66210;53.282;9.864;2023-04-03T00:41:39;4.97;;;1.67;;
77214;SDS011;66210;53.282;9.864;2023-04-03T00:44:23;2.80;;;1.55;;
77214;SDS011;66210;53.282;9.864;2023-04-03T00:47:09;8.98;;;1.92;;
77214;SDS011;66210;53.282;9.864;2023-04-03T00:49:37;5.18;;;1.58;;
77214;SDS011;66210;53.282;9.864;2023-04-03T00:52:06;6.40;;;2.15;;
77214;SDS011;66210;53.282;9.864;2023-04-03T00:54:36;4.15;;;1.60;;
77214;SDS011;66210;53.282;9.864;2023-04-03T00:57:03;4.47;;;1.60;;
77214;SDS011;66210;53.282;9.864;2023-04-03T00:59:34;8.05;;;1.90;;
77214;SDS011;66210;53.282;9.864;2023-04-03T01:02:05;5.28;;;1.75;;
77214;SDS011;66210;53.282;9.864;2023-04-03T01:04:36;3.50;;;1.50;;
77214;SDS011;66210;53.282;9.864;2023-04-03T01:07:08;5.15;;;1.60;;
77214;SDS011;66210;53.282;9.864;2023-04-03T01:09:38;9.68;;;1.42;;
77214;SDS011;66210;53.282;9.864;2023-04-03T01:12:13;4.32;;;1.70;;
77214;SDS011;66210;53.282;9.864;2023-04-03T01:14:55;5.22;;;1.90;;
77214;SDS011;66210;53.282;9.864;2023-04-03T01:17:34;2.88;;;1.52;;
77214;SDS011;66210;53.282;9.864;2023-04-03T01:22:46;4.35;;;2.17;;
77214;SDS011;66210;53.282;9.864;2023-04-03T01:25:22;3.15;;;1.70;;
77214;SDS011;66210;53.282;9.864;2023-04-03T01:27:49;4.70;;;2.17;;
77214;SDS011;66210;53.282;9.864;2023-04-03T01:30:17;6.90;;;1.65;;
77214;SDS011;66210;53.282;9.864;2023-04-03T01:32:45;3.60;;;1.60;;
77214;SDS011;66210;53.282;9.864;2023-04-03T01:35:12;6.45;;;2.03;;
77214;SDS011;66210;53.282;9.864;2023-04-03T01:37:39;9.30;;;1.75;;
77214;SDS011;66210;53.282;9.864;2023-04-03T01:40:05;6.30;;;1.67;;
77214;SDS011;66210;53.282;9.864;2023-04-03T01:42:33;7.00;;;1.92;;
77214;SDS011;66210;53.282;9.864;2023-04-03T01:45:00;6.82;;;2.00;;
77214;SDS011;66210;53.282;9.864;2023-04-03T01:47:26;4.75;;;1.60;;
77214;SDS011;66210;53.282;9.864;2023-04-03T01:49:53;5.80;;;1.88;;
77214;SDS011;66210;53.282;9.864;2023-04-03T01:52:20;4.35;;;1.83;;
77214;SDS011;66210;53.282;9.864;2023-04-03T01:54:46;3.53;;;1.90;;
77214;SDS011;66210;53.282;9.864;2023-04-03T01:57:13;5.97;;;1.75;;
77214;SDS011;66210;53.282;9.864;2023-04-03T01:59:41;5.55;;;1.70;;
77214;SDS011;66210;53.282;9.864;2023-04-03T02:02:08;6.43;;;1.77;;
77214;SDS011;66210;53.282;9.864;2023-04-03T02:04:34;4.70;;;1.70;;
77214;SDS011;66210;53.282;9.864;2023-04-03T02:07:01;3.60;;;1.52;;
77214;SDS011;66210;53.282;9.864;2023-04-03T02:09:28;6.50;;;2.35;;
77214;SDS011;66210;53.282;9.864;2023-04-03T02:11:54;3.92;;;2.03;;
77214;SDS011;66210;53.282;9.864;2023-04-03T02:14:21;7.97;;;1.60;;
77214;SDS011;66210;53.282;9.864;2023-04-03T02:16:49;7.68;;;1.83;;
77214;SDS011;66210;53.282;9.864;2023-04-03T02:19:16;4.38;;;1.77;;
77214;SDS011;66210;53.282;9.864;2023-04-03T02:21:43;8.57;;;1.80;;
77214;SDS011;66210;53.282;9.864;2023-04-03T02:24:10;8.15;;;1.85;;
77214;SDS011;66210;53.282;9.864;2023-04-03T02:26:36;7.40;;;1.83;;
77214;SDS011;66210;53.282;9.864;2023-04-03T02:29:03;5.85;;;1.70;;
77214;SDS011;66210;53.282;9.864;2023-04-03T02:31:30;3.50;;;1.40;;
77214;SDS011;66210;53.282;9.864;2023-04-03T02:33:57;3.45;;;1.65;;
77214;SDS011;66210;53.282;9.864;2023-04-03T02:36:24;6.22;;;1.70;;
77214;SDS011;66210;53.282;9.864;2023-04-03T02:38:51;6.20;;;1.88;;
77214;SDS011;66210;53.282;9.864;2023-04-03T02:41:17;9.52;;;1.95;;
77214;SDS011;66210;53.282;9.864;2023-04-03T02:43:44;4.55;;;1.63;;
77214;SDS011;66210;53.282;9.864;2023-04-03T02:46:11;5.70;;;1.67;;
77214;SDS011;66210;53.282;9.864;2023-04-03T02:48:37;11.70;;;1.65;;
77214;SDS011;66210;53.282;9.864;2023-04-03T02:51:04;7.05;;;1.65;;
77214;SDS011;66210;53.282;9.864;2023-04-03T02:53:31;2.88;;;1.33;;
77214;SDS011;66210;53.282;9.864;2023-04-03T02:55:58;7.88;;;1.75;;
77214;SDS011;66210;53.282;9.864;2023-04-03T02:58:24;4.55;;;1.80;;
77214;SDS011;66210;53.282;9.864;2023-04-03T03:00:51;2.75;;;1.65;;
77214;SDS011;66210;53.282;9.864;2023-04-03T03:03:18;3.90;;;1.50;;
77214;SDS011;66210;53.282;9.864;2023-04-03T03:05:45;3.92;;;1.58;;
77214;SDS011;66210;53.282;9.864;2023-04-03T03:08:11;2.70;;;1.52;;
77214;SDS011;66210;53.282;9.864;2023-04-03T03:10:38;7.40;;;1.80;;
77214;SDS011;66210;53.282;9.864;2023-04-03T03:13:05;3.90;;;1.73;;
77214;SDS011;66210;53.282;9.864;2023-04-03T03:15:32;6.80;;;1.90;;
77214;SDS011;66210;53.282;9.864;2023-04-03T03:17:58;6.00;;;1.63;;
77214;SDS011;66210;53.282;9.864;2023-04-03T03:20:25;4.45;;;1.80;;
77214;SDS011;66210;53.282;9.864;2023-04-03T03:22:52;3.05;;;1.70;;
77214;SDS011;66210;53.282;9.864;2023-04-03T03:25:18;5.72;;;1.98;;
77214;SDS011;66210;53.282;9.864;2023-04-03T03:27:45;4.18;;;1.80;;
77214;SDS011;66210;53.282;9.864;2023-04-03T03:30:12;5.78;;;1.95;;
77214;SDS011;66210;53.282;9.864;2023-04-03T03:32:38;4.32;;;1.60;;
77214;SDS011;66210;53.282;9.864;2023-04-03T03:35:05;5.28;;;1.58;;
77214;SDS011;66210;53.282;9.864;2023-04-03T03:37:32;5.07;;;1.83;;
77214;SDS011;66210;53.282;9.864;2023-04-03T03:39:59;2.45;;;1.52;;
77214;SDS011;66210;53.282;9.864;2023-04-03T03:42:26;3.97;;;1.50;;
77214;SDS011;66210;53.282;9.864;2023-04-03T03:44:52;3.97;;;1.50;;
77214;SDS011;66210;53.282;9.864;2023-04-03T03:47:19;4.32;;;1.50;;
77214;SDS011;66210;53.282;9.864;2023-04-03T03:49:46;10.63;;;1.85;;
77214;SDS011;66210;53.282;9.864;2023-04-03T03:52:13;8.93;;;1.75;;
77214;SDS011;66210;53.282;9.864;2023-04-03T03:54:39;7.13;;;1.80;;
77214;SDS011;66210;53.282;9.864;2023-04-03T03:57:06;4.65;;;1.50;;
77214;SDS011;66210;53.282;9.864;2023-04-03T03:59:33;3.38;;;1.50;;
77214;SDS011;66210;53.282;9.864;2023-04-03T04:02:00;4.72;;;1.55;;
77214;SDS011;66210;53.282;9.864;2023-04-03T04:04:27;6.82;;;1.88;;
77214;SDS011;66210;53.282;9.864;2023-04-03T04:06:54;3.85;;;1.60;;
77214;SDS011;66210;53.282;9.864;2023-04-03T04:09:20;6.32;;;2.55;;
77214;SDS011;66210;53.282;9.864;2023-04-03T04:11:48;5.65;;;1.52;;
77214;SDS011;66210;53.282;9.864;2023-04-03T04:14:14;6.57;;;2.88;;
77214;SDS011;66210;53.282;9.864;2023-04-03T04:16:41;6.93;;;1.90;;
77214;SDS011;66210;53.282;9.864;2023-04-03T04:19:08;10.73;;;2.00;;
77214;SDS011;66210;53.282;9.864;2023-04-03T04:21:35;3.15;;;1.70;;
77214;SDS011;66210;53.282;9.864;2023-04-03T04:24:02;7.15;;;2.10;;
77214;SDS011;66210;53.282;9.864;2023-04-03T04:26:29;3.95;;;1.80;;
77214;SDS011;66210;53.282;9.864;2023-04-03T04:28:55;4.82;;;2.03;;
77214;SDS011;66210;53.282;9.864;2023-04-03T04:31:22;4.28;;;2.03;;
77214;SDS011;66210;53.282;9.864;2023-04-03T04:33:49;4.45;;;1.85;;
77214;SDS011;66210;53.282;9.864;2023-04-03T04:36:16;7.53;;;1.67;;
77214;SDS011;66210;53.282;9.864;2023-04-03T04:38:43;6.82;;;2.10;;
77214;SDS011;66210;53.282;9.864;2023-04-03T04:41:09;3.53;;;1.80;;
77214;SDS011;66210;53.282;9.864;2023-04-03T04:43:37;3.03;;;1.60;;
77214;SDS011;66210;53.282;9.864;2023-04-03T04:46:08;8.05;;;1.88;;
77214;SDS011;66210;53.282;9.864;2023-04-03T04:48:36;7.95;;;2.30;;
77214;SDS011;66210;53.282;9.864;2023-04-03T04:51:03;4.38;;;2.00;;
77214;SDS011;66210;53.282;9.864;2023-04-03T04:53:30;6.10;;;1.98;;
77214;SDS011;66210;53.282;9.864;2023-04-03T04:55:57;2.70;;;1.52;;
77214;SDS011;66210;53.282;9.864;2023-04-03T04:58:24;4.70;;;1.70;;
77214;SDS011;66210;53.282;9.864;2023-04-03T05:01:05;5.15;;;1.60;;
77214;SDS011;66210;53.282;9.864;2023-04-03T05:03:33;2.83;;;1.48;;
77214;SDS011;66210;53.282;9.864;2023-04-03T05:06:00;7.18;;;2.05;;
77214;SDS011;66210;53.282;9.864;2023-04-03T05:08:28;6.15;;;1.83;;
77214;SDS011;66210;53.282;9.864;2023-04-03T05:10:56;5.70;;;2.10;;
77214;SDS011;66210;53.282;9.864;2023-04-03T05:13:23;4.50;;;2.05;;
77214;SDS011;66210;53.282;9.864;2023-04-03T05:15:50;4.38;;;1.80;;
77214;SDS011;66210;53.282;9.864;2023-04-03T05:18:16;6.00;;;2.10;;
77214;SDS011;66210;53.282;9.864;2023-04-03T05:20:43;3.25;;;2.33;;
77214;SDS011;66210;53.282;9.864;2023-04-03T05:23:10;5.25;;;1.92;;
77214;SDS011;66210;53.282;9.864;2023-04-03T05:25:38;8.15;;;2.22;;
77214;SDS011;66210;53.282;9.864;2023-04-03T05:28:05;9.50;;;2.50;;
77214;SDS011;66210;53.282;9.864;2023-04-03T05:30:32;6.70;;;2.08;;
77214;SDS011;66210;53.282;9.864;2023-04-03T05:32:59;7.97;;;2.33;;
77214;SDS011;66210;53.282;9.864;2023-04-03T05:35:26;6.43;;;2.15;;
77214;SDS011;66210;53.282;9.864;2023-04-03T05:37:52;7.28;;;2.60;;
77214;SDS011;66210;53.282;9.864;2023-04-03T05:40:19;5.57;;;2.13;;
77214;SDS011;66210;53.282;9.864;2023-04-03T05:42:46;4.13;;;2.30;;
77214;SDS011;66210;53.282;9.864;2023-04-03T05:45:13;5.57;;;2.10;;
77214;SDS011;66210;53.282;9.864;2023-04-03T05:47:39;5.97;;;2.80;;
77214;SDS011;66210;53.282;9.864;2023-04-03T05:50:06;8.70;;;2.80;;
77214;SDS011;66210;53.282;9.864;2023-04-03T05:52:35;5.40;;;2.47;;
77214;SDS011;66210;53.282;9.864;2023-04-03T05:55:04;4.15;;;2.70;;
77214;SDS011;66210;53.282;9.864;2023-04-03T05:57:32;7.88;;;2.58;;
77214;SDS011;66210;53.282;9.864;2023-04-03T05:59:59;9.50;;;2.15;;
77214;SDS011;66210;53.282;9.864;2023-04-03T06:02:26;8.30;;;2.55;;
77214;SDS011;66210;53.282;9.864;2023-04-03T06:04:53;5.45;;;2.00;;
77214;SDS011;66210;53.282;9.864;2023-04-03T06:07:21;4.90;;;2.10;;
77214;SDS011;66210;53.282;9.864;2023-04-03T06:09:50;3.30;;;1.88;;
77214;SDS011;66210;53.282;9.864;2023-04-03T06:12:17;10.68;;;2.13;;
77214;SDS011;66210;53.282;9.864;2023-04-03T06:14:45;4.68;;;1.90;;
77214;SDS011;66210;53.282;9.864;2023-04-03T06:17:12;5.57;;;2.05;;
77214;SDS011;66210;53.282;9.864;2023-04-03T06:19:39;11.30;;;2.25;;
77214;SDS011;66210;53.282;9.864;2023-04-03T06:22:07;4.60;;;2.00;;
77214;SDS011;66210;53.282;9.864;2023-04-03T06:24:33;8.88;;;1.88;;
77214;SDS011;66210;53.282;9.864;2023-04-03T06:27:01;7.28;;;1.75;;
77214;SDS011;66210;53.282;9.864;2023-04-03T06:29:28;8.25;;;2.60;;
77214;SDS011;66210;53.282;9.864;2023-04-03T06:31:55;5.15;;;1.95;;
77214;SDS011;66210;53.282;9.864;2023-04-03T06:34:22;6.10;;;1.92;;
77214;SDS011;66210;53.282;9.864;2023-04-03T06:36:48;6.20;;;2.17;;
77214;SDS011;66210;53.282;9.864;2023-04-03T06:39:18;5.40;;;1.95;;
77214;SDS011;66210;53.282;9.864;2023-04-03T06:41:49;14.98;;;2.63;;
77214;SDS011;66210;53.282;9.864;2023-04-03T06:44:17;5.97;;;1.88;;
77214;SDS011;66210;53.282;9.864;2023-04-03T06:46:44;6.40;;;1.65;;
77214;SDS011;66210;53.282;9.864;2023-04-03T06:49:12;7.07;;;2.22;;
77214;SDS011;66210;53.282;9.864;2023-04-03T06:51:38;7.65;;;2.15;;
77214;SDS011;66210;53.282;9.864;2023-04-03T06:54:06;4.88;;;2.47;;
77214;SDS011;66210;53.282;9.864;2023-04-03T06:56:34;2.45;;;1.42;;
77214;SDS011;66210;53.282;9.864;2023-04-03T06:59:02;4.55;;;2.17;;
77214;SDS011;66210;53.282;9.864;2023-04-03T07:01:29;4.40;;;1.77;;
77214;SDS011;66210;53.282;9.864;2023-04-03T07:03:57;5.10;;;1.67;;
77214;SDS011;66210;53.282;9.864;2023-04-03T07:06:24;6.70;;;1.83;;
77214;SDS011;66210;53.282;9.864;2023-04-03T07:08:53;8.88;;;2.25;;
77214;SDS011;66210;53.282;9.864;2023-04-03T07:11:20;2.92;;;1.40;;
77214;SDS011;66210;53.282;9.864;2023-04-03T07:13:48;8.95;;;1.75;;
77214;SDS011;66210;53.282;9.864;2023-04-03T07:16:16;4.22;;;1.90;;
77214;SDS011;66210;53.282;9.864;2023-04-03T07:18:43;3.55;;;1.80;;
77214;SDS011;66210;53.282;9.864;2023-04-03T07:21:10;5.25;;;1.55;;
77214;SDS011;66210;53.282;9.864;2023-04-03T07:23:37;6.47;;;1.70;;
77214;SDS011;66210;53.282;9.864;2023-04-03T07:26:04;5.15;;;1.80;;
77214;SDS011;66210;53.282;9.864;2023-04-03T07:28:31;5.40;;;1.80;;
77214;SDS011;66210;53.282;9.864;2023-04-03T07:30:59;9.75;;;1.80;;
77214;SDS011;66210;53.282;9.864;2023-04-03T07:33:28;5.85;;;1.60;;
77214;SDS011;66210;53.282;9.864;2023-04-03T07:35:55;3.13;;;1.30;;
77214;SDS011;66210;53.282;9.864;2023-04-03T07:38:23;3.83;;;1.83;;
77214;SDS011;66210;53.282;9.864;2023-04-03T07:40:50;5.90;;;1.85;;
77214;SDS011;66210;53.282;9.864;2023-04-03T07:43:19;4.47;;;1.42;;
77214;SDS011;66210;53.282;9.864;2023-04-03T07:45:47;5.65;;;1.50;;
77214;SDS011;66210;53.282;9.864;2023-04-03T07:48:26;4.10;;;1.52;;
77214;SDS011;66210;53.282;9.864;2023-04-03T07:50:53;5.85;;;1.50;;
77214;SDS011;66210;53.282;9.864;2023-04-03T07:53:19;5.45;;;1.40;;
77214;SDS011;66210;53.282;9.864;2023-04-03T07:55:46;2.22;;;1.25;;
77214;SDS011;66210;53.282;9.864;2023-04-03T07:58:16;4.85;;;1.42;;
77214;SDS011;66210;53.282;9.864;2023-04-03T08:00:44;5.43;;;1.70;;
77214;SDS011;66210;53.282;9.864;2023-04-03T08:03:11;2.95;;;1.60;;
77214;SDS011;66210;53.282;9.864;2023-04-03T08:05:40;3.55;;;1.70;;
77214;SDS011;66210;53.282;9.864;2023-04-03T08:08:08;3.40;;;1.60;;
77214;SDS011;66210;53.282;9.864;2023-04-03T08:10:37;5.88;;;1.83;;
77214;SDS011;66210;53.282;9.864;2023-04-03T08:13:06;2.70;;;1.50;;
77214;SDS011;66210;53.282;9.864;2023-04-03T08:15:33;8.38;;;2.03;;
77214;SDS011;66210;53.282;9.864;2023-04-03T08:18:00;5.93;;;1.83;;
77214;SDS011;66210;53.282;9.864;2023-04-03T08:20:27;4.72;;;1.90;;
77214;SDS011;66210;53.282;9.864;2023-04-03T08:22:54;4.88;;;1.42;;
77214;SDS011;66210;53.282;9.864;2023-04-03T08:25:21;6.57;;;1.50;;
77214;SDS011;66210;53.282;9.864;2023-04-03T08:27:48;5.38;;;1.20;;
77214;SDS011;66210;53.282;9.864;2023-04-03T08:30:14;2.50;;;1.08;;
77214;SDS011;66210;53.282;9.864;2023-04-03T08:32:41;2.92;;;1.20;;
77214;SDS011;66210;53.282;9.864;2023-04-03T08:35:09;3.83;;;1.67;;
77214;SDS011;66210;53.282;9.864;2023-04-03T08:37:37;4.30;;;1.38;;
77214;SDS011;66210;53.282;9.864;2023-04-03T08:40:05;3.17;;;1.30;;
77214;SDS011;66210;53.282;9.864;2023-04-03T08:42:40;4.88;;;1.67;;
77214;SDS011;66210;53.282;9.864;2023-04-03T08:45:17;3.22;;;1.40;;
77214;SDS011;66210;53.282;9.864;2023-04-03T08:48:00;7.00;;;1.45;;
77214;SDS011;66210;53.282;9.864;2023-04-03T08:50:31;4.40;;;1.52;;
77214;SDS011;66210;53.282;9.864;2023-04-03T08:53:02;3.42;;;1.50;;
77214;SDS011;66210;53.282;9.864;2023-04-03T08:55:34;4.97;;;1.20;;
77214;SDS011;66210;53.282;9.864;2023-04-03T08:58:09;7.60;;;1.60;;
77214;SDS011;66210;53.282;9.864;2023-04-03T09:01:00;5.97;;;1.40;;
77214;SDS011;66210;53.282;9.864;2023-04-03T09:03:38;4.68;;;1.38;;
77214;SDS011;66210;53.282;9.864;2023-04-03T09:06:08;2.85;;;1.40;;
77214;SDS011;66210;53.282;9.864;2023-04-03T09:08:43;3.17;;;1.45;;
77214;SDS011;66210;53.282;9.864;2023-04-03T09:13:59;2.78;;;1.30;;
77214;SDS011;66210;53.282;9.864;2023-04-03T09:16:33;4.20;;;1.20;;
77214;SDS011;66210;53.282;9.864;2023-04-03T09:21:58;3.10;;;1.52;;
77214;SDS011;66210;53.282;9.864;2023-04-03T09:24:39;4.32;;;1.23;;
77214;SDS011;66210;53.282;9.864;2023-04-03T09:27:09;2.58;;;1.02;;
77214;SDS011;66210;53.282;9.864;2023-04-03T09:29:42;2.60;;;1.15;;
77214;SDS011;66210;53.282;9.864;2023-04-03T09:32:19;4.13;;;1.30;;
77214;SDS011;66210;53.282;9.864;2023-04-03T09:34:51;2.85;;;1.20;;
77214;SDS011;66210;53.282;9.864;2023-04-03T09:37:35;1.20;;;1.10;;
77214;SDS011;66210;53.282;9.864;2023-04-03T09:40:27;4.10;;;1.30;;
77214;SDS011;66210;53.282;9.864;2023-04-03T09:42:53;3.80;;;1.25;;
77214;SDS011;66210;53.282;9.864;2023-04-03T09:45:31;3.88;;;1.15;;
77214;SDS011;66210;53.282;9.864;2023-04-03T09:53:25;3.53;;;1.45;;
77214;SDS011;66210;53.282;9.864;2023-04-03T09:55:53;3.50;;;1.40;;
77214;SDS011;66210;53.282;9.864;2023-04-03T09:58:38;2.92;;;1.33;;
77214;SDS011;66210;53.282;9.864;2023-04-03T10:01:20;3.95;;;1.25;;
77214;SDS011;66210;53.282;9.864;2023-04-03T10:04:02;1.50;;;1.15;;
77214;SDS011;66210;53.282;9.864;2023-04-03T10:06:29;2.35;;;1.27;;
77214;SDS011;66210;53.282;9.864;2023-04-03T10:08:59;2.15;;;1.23;;
77214;SDS011;66210;53.282;9.864;2023-04-03T10:11:29;3.33;;;0.95;;
77214;SDS011;66210;53.282;9.864;2023-04-03T10:13:59;5.18;;;1.27;;
77214;SDS011;66210;53.282;9.864;2023-04-03T10:16:35;3.42;;;1.33;;
77214;SDS011;66210;53.282;9.864;2023-04-03T10:19:13;2.50;;;1.25;;
77214;SDS011;66210;53.282;9.864;2023-04-03T10:22:04;1.35;;;0.98;;
77214;SDS011;66210;53.282;9.864;2023-04-03T10:24:52;4.35;;;1.27;;
77214;SDS011;66210;53.282;9.864;2023-04-03T10:27:30;3.55;;;1.48;;
77214;SDS011;66210;53.282;9.864;2023-04-03T10:33:29;2.15;;;1.10;;
77214;SDS011;66210;53.282;9.864;2023-04-03T10:36:24;3.83;;;1.10;;
77214;SDS011;66210;53.282;9.864;2023-04-03T10:39:06;6.68;;;1.52;;
77214;SDS011;66210;53.282;9.864;2023-04-03T10:41:58;5.85;;;1.27;;
77214;SDS011;66210;53.282;9.864;2023-04-03T10:44:49;2.90;;;1.30;;
77214;SDS011;66210;53.282;9.864;2023-04-03T10:47:26;3.33;;;1.10;;
77214;SDS011;66210;53.282;9.864;2023-04-03T10:55:39;2.28;;;1.10;;
77214;SDS011;66210;53.282;9.864;2023-04-03T10:58:21;2.33;;;1.23;;
77214;SDS011;66210;53.282;9.864;2023-04-03T11:00:57;4.07;;;1.20;;
77214;SDS011;66210;53.282;9.864;2023-04-03T11:03:30;3.30;;;1.17;;
77214;SDS011;66210;53.282;9.864;2023-04-03T11:06:02;1.35;;;1.20;;
77214;SDS011;66210;53.282;9.864;2023-04-03T11:08:38;3.85;;;1.30;;
77214;SDS011;66210;53.282;9.864;2023-04-03T11:11:17;6.35;;;1.77;;
77214;SDS011;66210;53.282;9.864;2023-04-03T11:13:52;2.78;;;1.10;;
77214;SDS011;66210;53.282;9.864;2023-04-03T11:16:27;2.33;;;1.13;;
77214;SDS011;66210;53.282;9.864;2023-04-03T11:18:59;2.65;;;1.20;;
77214;SDS011;66210;53.282;9.864;2023-04-03T11:21:41;2.67;;;1.27;;
77214;SDS011;66210;53.282;9.864;2023-04-03T11:24:15;3.05;;;1.27;;
77214;SDS011;66210;53.282;9.864;2023-04-03T11:26:48;2.75;;;1.20;;
77214;SDS011;66210;53.282;9.864;2023-04-03T11:29:18;7.28;;;1.15;;
77214;SDS011;66210;53.282;9.864;2023-04-03T11:35:12;4.53;;;1.10;;
77214;SDS011;66210;53.282;9.864;2023-04-03T11:37:41;2.78;;;1.10;;
77214;SDS011;66210;53.282;9.864;2023-04-03T11:42:54;3.25;;;1.38;;
77214;SDS011;66210;53.282;9.864;2023-04-03T11:50:51;3.45;;;1.35;;
77214;SDS011;66210;53.282;9.864;2023-04-03T11:58:18;3.78;;;1.30;;
77214;SDS011;66210;53.282;9.864;2023-04-03T12:00:51;2.75;;;1.25;;
77214;SDS011;66210;53.282;9.864;2023-04-03T12:13:36;3.35;;;1.30;;
77214;SDS011;66210;53.282;9.864;2023-04-03T12:16:05;10.82;;;1.50;;
77214;SDS011;66210;53.282;9.864;2023-04-03T12:21:15;3.90;;;1.40;;
77214;SDS011;66210;53.282;9.864;2023-04-03T12:23:59;1.90;;;1.20;;
77214;SDS011;66210;53.282;9.864;2023-04-03T12:26:40;5.03;;;1.40;;
77214;SDS011;66210;53.282;9.864;2023-04-03T12:31:55;4.15;;;1.48;;
77214;SDS011;66210;53.282;9.864;2023-04-03T12:43:17;4.93;;;1.30;;
77214;SDS011;66210;53.282;9.864;2023-04-03T12:46:04;3.58;;;1.13;;
77214;SDS011;66210;53.282;9.864;2023-04-03T12:48:32;1.65;;;1.13;;
77214;SDS011;66210;53.282;9.864;2023-04-03T12:51:04;3.95;;;1.40;;
77214;SDS011;66210;53.282;9.864;2023-04-03T12:53:33;2.70;;;1.30;;
77214;SDS011;66210;53.282;9.864;2023-04-03T12:56:22;6.22;;;1.35;;
77214;SDS011;66210;53.282;9.864;2023-04-03T12:59:15;3.25;;;1.30;;
77214;SDS011;66210;53.282;9.864;2023-04-03T13:01:56;2.45;;;1.02;;
77214;SDS011;66210;53.282;9.864;2023-04-03T13:04:24;2.42;;;1.08;;
77214;SDS011;66210;53.282;9.864;2023-04-03T13:06:53;2.55;;;1.05;;
77214;SDS011;66210;53.282;9.864;2023-04-03T13:09:22;3.10;;;1.13;;
77214;SDS011;66210;53.282;9.864;2023-04-03T13:14:26;2.95;;;1.20;;
77214;SDS011;66210;53.282;9.864;2023-04-03T13:16:59;1.88;;;1.20;;
77214;SDS011;66210;53.282;9.864;2023-04-03T13:19:30;4.47;;;1.33;;
77214;SDS011;66210;53.282;9.864;2023-04-03T13:22:01;3.33;;;1.30;;
77214;SDS011;66210;53.282;9.864;2023-04-03T13:24:33;2.25;;;1.40;;
77214;SDS011;66210;53.282;9.864;2023-04-03T13:27:03;1.50;;;1.08;;
77214;SDS011;66210;53.282;9.864;2023-04-03T13:29:32;5.50;;;1.20;;
77214;SDS011;66210;53.282;9.864;2023-04-03T13:32:06;4.15;;;1.40;;
77214;SDS011;66210;53.282;9.864;2023-04-03T13:34:37;1.75;;;1.10;;
77214;SDS011;66210;53.282;9.864;2023-04-03T13:37:07;2.03;;;1.10;;
77214;SDS011;66210;53.282;9.864;2023-04-03T13:39:55;1.50;;;1.10;;
77214;SDS011;66210;53.282;9.864;2023-04-03T13:42:26;2.63;;;1.20;;
77214;SDS011;66210;53.282;9.864;2023-04-03T13:47:44;6.68;;;1.25;;
77214;SDS011;66210;53.282;9.864;2023-04-03T13:50:23;6.05;;;1.40;;
77214;SDS011;66210;53.282;9.864;2023-04-03T13:52:59;2.67;;;1.20;;
77214;SDS011;66210;53.282;9.864;2023-04-03T13:55:59;4.53;;;1.50;;
77214;SDS011;66210;53.282;9.864;2023-04-03T13:58:30;2.10;;;0.98;;
77214;SDS011;66210;53.282;9.864;2023-04-03T14:03:42;4.05;;;1.35;;
77214;SDS011;66210;53.282;9.864;2023-04-03T14:06:13;1.35;;;1.20;;
77214;SDS011;66210;53.282;9.864;2023-04-03T14:08:42;4.35;;;1.33;;
77214;SDS011;66210;53.282;9.864;2023-04-03T14:11:20;2.72;;;1.30;;
77214;SDS011;66210;53.282;9.864;2023-04-03T14:13:50;2.20;;;1.20;;
77214;SDS011;66210;53.282;9.864;2023-04-03T14:16:18;1.55;;;1.20;;
77214;SDS011;66210;53.282;9.864;2023-04-03T14:18:48;3.10;;;1.40;;
77214;SDS011;66210;53.282;9.864;2023-04-03T14:21:17;3.35;;;1.35;;
77214;SDS011;66210;53.282;9.864;2023-04-03T14:23:46;3.72;;;1.50;;
77214;SDS011;66210;53.282;9.864;2023-04-03T14:26:14;2.75;;;1.08;;
77214;SDS011;66210;53.282;9.864;2023-04-03T14:28:48;4.95;;;1.40;;
77214;SDS011;66210;53.282;9.864;2023-04-03T14:31:17;3.40;;;1.33;;
77214;SDS011;66210;53.282;9.864;2023-04-03T14:33:44;1.92;;;1.05;;
77214;SDS011;66210;53.282;9.864;2023-04-03T14:36:16;4.05;;;1.55;;
77214;SDS011;66210;53.282;9.864;2023-04-03T14:38:53;2.70;;;1.10;;
77214;SDS011;66210;53.282;9.864;2023-04-03T14:41:22;2.40;;;1.17;;
77214;SDS011;66210;53.282;9.864;2023-04-03T14:43:50;3.42;;;1.40;;
77214;SDS011;66210;53.282;9.864;2023-04-03T14:46:19;1.50;;;1.20;;
77214;SDS011;66210;53.282;9.864;2023-04-03T14:48:47;1.65;;;1.23;;
77214;SDS011;66210;53.282;9.864;2023-04-03T14:51:14;2.95;;;1.35;;
77214;SDS011;66210;53.282;9.864;2023-04-03T14:53:42;1.95;;;1.27;;
77214;SDS011;66210;53.282;9.864;2023-04-03T14:56:14;5.95;;;1.23;;
77214;SDS011;66210;53.282;9.864;2023-04-03T14:58:44;2.85;;;1.20;;
77214;SDS011;66210;53.282;9.864;2023-04-03T15:01:11;3.17;;;1.60;;
77214;SDS011;66210;53.282;9.864;2023-04-03T15:03:38;3.28;;;1.60;;
77214;SDS011;66210;53.282;9.864;2023-04-03T15:06:05;2.33;;;1.08;;
77214;SDS011;66210;53.282;9.864;2023-04-03T15:08:32;5.13;;;1.30;;
77214;SDS011;66210;53.282;9.864;2023-04-03T15:10:59;3.35;;;1.30;;
77214;SDS011;66210;53.282;9.864;2023-04-03T15:13:27;2.25;;;1.08;;
77214;SDS011;66210;53.282;9.864;2023-04-03T15:15:53;2.28;;;1.10;;
77214;SDS011;66210;53.282;9.864;2023-04-03T15:18:25;3.00;;;1.17;;
77214;SDS011;66210;53.282;9.864;2023-04-03T15:20:56;4.57;;;1.15;;
77214;SDS011;66210;53.282;9.864;2023-04-03T15:23:23;1.95;;;1.10;;
77214;SDS011;66210;53.282;9.864;2023-04-03T15:25:52;4.07;;;1.30;;
77214;SDS011;66210;53.282;9.864;2023-04-03T15:28:22;4.97;;;1.38;;
77214;SDS011;66210;53.282;9.864;2023-04-03T15:30:53;2.35;;;1.30;;
77214;SDS011;66210;53.282;9.864;2023-04-03T15:33:20;2.85;;;1.08;;
77214;SDS011;66210;53.282;9.864;2023-04-03T15:35:47;4.60;;;1.20;;
77214;SDS011;66210;53.282;9.864;2023-04-03T15:38:14;4.47;;;1.10;;
77214;SDS011;66210;53.282;9.864;2023-04-03T15:40:41;1.77;;;1.10;;
77214;SDS011;66210;53.282;9.864;2023-04-03T15:43:08;2.55;;;1.17;;
77214;SDS011;66210;53.282;9.864;2023-04-03T15:45:36;3.20;;;1.42;;
77214;SDS011;66210;53.282;9.864;2023-04-03T15:48:04;3.22;;;1.15;;
77214;SDS011;66210;53.282;9.864;2023-04-03T15:50:32;1.85;;;1.05;;
77214;SDS011;66210;53.282;9.864;2023-04-03T15:53:00;4.50;;;1.33;;
77214;SDS011;66210;53.282;9.864;2023-04-03T15:55:29;3.50;;;1.50;;
77214;SDS011;66210;53.282;9.864;2023-04-03T15:57:57;2.90;;;1.35;;
77214;SDS011;66210;53.282;9.864;2023-04-03T16:00:25;1.73;;;1.00;;
77214;SDS011;66210;53.282;9.864;2023-04-03T16:02:53;2.45;;;1.13;;
77214;SDS011;66210;53.282;9.864;2023-04-03T16:05:23;1.90;;;1.20;;
77214;SDS011;66210;53.282;9.864;2023-04-03T16:07:50;1.42;;;1.15;;
77214;SDS011;66210;53.282;9.864;2023-04-03T16:10:17;3.53;;;1.23;;
77214;SDS011;66210;53.282;9.864;2023-04-03T16:12:44;4.75;;;1.90;;
77214;SDS011;66210;53.282;9.864;2023-04-03T16:15:11;2.63;;;1.38;;